createdAt,value
2019-04-10T00:01:06.485Z,28.42
2019-04-10T00:03:37.896Z,25.82
2019-04-10T00:06:04.733Z,32.33
2019-04-10T00:08:34.418Z,32.85
2019-04-10T00:11:03.215Z,31.65
2019-04-10T00:13:31.782Z,26.57
2019-04-10T00:16:00.361Z,28.12
2019-04-10T00:18:29.789Z,30.55
2019-04-10T00:20:58.641Z,32.60
2019-04-10T00:23:27.397Z,32.70
2019-04-10T00:25:55.909Z,33.85
2019-04-10T00:28:25.442Z,34.50
2019-04-10T00:30:54.180Z,36.50
2019-04-10T00:33:22.931Z,37.13
2019-04-10T00:35:51.942Z,40.30
2019-04-10T00:38:26.126Z,40.40
2019-04-10T00:40:55.473Z,39.98
2019-04-10T00:43:24.638Z,43.25
2019-04-10T00:45:53.611Z,44.13
2019-04-10T00:48:22.286Z,44.95
2019-04-10T00:50:50.959Z,43.63
2019-04-10T00:53:19.562Z,43.33
2019-04-10T00:55:48.200Z,44.15
2019-04-10T00:58:16.754Z,42.33
2019-04-10T01:00:45.502Z,42.35
2019-04-10T01:03:16.042Z,41.25
2019-04-10T01:05:44.484Z,46.42
2019-04-10T01:08:12.938Z,44.35
2019-04-10T01:10:42.177Z,48.28
2019-04-10T01:13:10.783Z,50.70
2019-04-10T01:15:39.258Z,51.20
2019-04-10T01:18:07.774Z,52.95
2019-04-10T01:20:36.326Z,53.68
2019-04-10T01:23:05.770Z,53.38
2019-04-10T01:25:34.654Z,52.73
2019-04-10T01:28:03.167Z,53.20
2019-04-10T01:30:32.677Z,61.05
2019-04-10T01:33:01.319Z,62.53
2019-04-10T01:35:30.009Z,64.65
2019-04-10T01:38:02.424Z,61.13
2019-04-10T01:40:28.958Z,64.43
2019-04-10T01:43:09.217Z,63.52
2019-04-10T01:45:27.747Z,63.25
2019-04-10T01:47:56.379Z,64.45
2019-04-10T01:50:24.887Z,65.67
2019-04-10T01:52:53.463Z,64.42
2019-04-10T01:55:26.624Z,67.72
2019-04-10T01:57:52.745Z,65.47
2019-04-10T02:00:23.701Z,63.83
2019-04-10T02:02:53.978Z,67.03
2019-04-10T02:05:22.854Z,67.12
2019-04-10T02:08:01.318Z,65.60
2019-04-10T02:10:21.827Z,64.53
2019-04-10T02:12:50.812Z,66.60
2019-04-10T02:15:19.709Z,67.78
2019-04-10T02:17:48.694Z,66.28
2019-04-10T02:20:18.963Z,64.50
2019-04-10T02:22:47.967Z,68.87
2019-04-10T02:25:17.816Z,70.20
2019-04-10T02:27:46.816Z,68.15
2019-04-10T02:30:17.553Z,69.62
2019-04-10T02:32:48.202Z,67.78
2019-04-10T02:35:17.650Z,63.17
2019-04-10T02:37:49.532Z,69.40
2019-04-10T02:40:17.232Z,69.20
2019-04-10T02:42:51.388Z,69.65
2019-04-10T02:45:19.922Z,69.82
2019-04-10T02:47:48.402Z,68.02
2019-04-10T02:50:18.644Z,72.12
2019-04-10T02:52:48.837Z,72.23
2019-04-10T02:55:18.553Z,68.87
2019-04-10T02:57:47.486Z,69.42
2019-04-10T03:00:17.834Z,72.82
2019-04-10T03:03:06.501Z,51.75
2019-04-10T03:05:35.525Z,69.37
2019-04-10T03:08:05.385Z,71.10
2019-04-10T03:10:40.787Z,69.75
2019-04-10T03:13:04.960Z,54.93
2019-04-10T03:15:33.913Z,75.35
2019-04-10T03:18:02.926Z,72.87
2019-04-10T03:20:32.180Z,76.90
2019-04-10T03:23:00.997Z,74.65
2019-04-10T03:25:29.449Z,73.83
2019-04-10T03:27:58.720Z,71.15
2019-04-10T03:30:27.537Z,70.78
2019-04-10T03:33:03.270Z,76.53
2019-04-10T03:35:34.625Z,76.30
2019-04-10T03:38:03.259Z,75.30
2019-04-10T03:40:31.763Z,75.52
2019-04-10T03:43:01.400Z,71.07
2019-04-10T03:45:30.772Z,74.72
2019-04-10T03:47:59.996Z,75.75
2019-04-10T03:50:29.915Z,72.20
2019-04-10T03:52:58.485Z,75.55
2019-04-10T03:55:27.117Z,75.22
2019-04-10T03:57:55.669Z,73.30
2019-04-10T04:00:24.192Z,73.28
2019-04-10T04:02:53.853Z,76.53
2019-04-10T04:05:22.498Z,75.70
2019-04-10T04:07:50.999Z,75.22
2019-04-10T04:10:20.473Z,77.72
2019-04-10T04:12:49.111Z,75.75
2019-04-10T04:15:17.859Z,75.15
2019-04-10T04:17:46.542Z,72.25
2019-04-10T04:20:15.196Z,73.65
2019-04-10T04:22:43.737Z,73.52
2019-04-10T04:25:12.827Z,75.28
2019-04-10T04:27:42.006Z,75.85
2019-04-10T04:30:11.164Z,74.77
2019-04-10T04:32:40.073Z,77.53
2019-04-10T04:35:09.104Z,78.92
2019-04-10T04:37:37.958Z,77.12
2019-04-10T04:40:06.966Z,79.47
2019-04-10T04:42:35.425Z,80.77
2019-04-10T04:45:05.221Z,81.35
2019-04-10T04:47:33.807Z,82.05
2019-04-10T04:50:03.448Z,85.47
2019-04-10T04:52:32.778Z,88.10
2019-04-10T04:55:01.946Z,82.47
2019-04-10T04:57:31.791Z,87.65
2019-04-10T05:00:01.137Z,84.90
2019-04-10T05:02:30.308Z,89.17
2019-04-10T05:04:58.906Z,86.85
2019-04-10T05:07:27.467Z,92.30
2019-04-10T05:09:57.571Z,95.42
2019-04-10T05:12:26.230Z,94.60
2019-04-10T05:14:55.743Z,98.45
2019-04-10T05:17:24.551Z,96.92
2019-04-10T05:19:53.066Z,94.30
2019-04-10T05:22:22.324Z,94.97
2019-04-10T05:24:51.032Z,99.45
2019-04-10T05:27:19.532Z,98.27
2019-04-10T05:29:48.084Z,95.03
2019-04-10T05:32:16.539Z,97.82
2019-04-10T05:34:45.058Z,98.95
2019-04-10T05:37:13.652Z,97.85
2019-04-10T05:39:47.623Z,95.90
2019-04-10T05:42:12.743Z,77.17
2019-04-10T05:44:42.316Z,94.95
2019-04-10T05:47:11.790Z,96.12
2019-04-10T05:49:41.379Z,90.07
2019-04-10T05:52:10.414Z,90.65
2019-04-10T05:54:39.544Z,92.22
2019-04-10T05:57:08.383Z,93.37
2019-04-10T05:59:36.899Z,88.50
2019-04-10T06:02:06.777Z,90.53
2019-04-10T06:04:35.758Z,91.35
2019-04-10T06:07:05.268Z,93.52
2019-04-10T06:09:33.925Z,91.82
2019-04-10T06:12:04.084Z,93.47
2019-04-10T06:14:32.881Z,68.07
2019-04-10T06:17:04.109Z,91.65
2019-04-10T06:19:32.398Z,70.20
2019-04-10T06:22:01.102Z,84.70
2019-04-10T06:24:29.971Z,87.97
2019-04-10T06:26:59.611Z,84.90
2019-04-10T06:29:28.786Z,87.57
2019-04-10T06:31:57.389Z,85.20
2019-04-10T06:34:26.683Z,84.97
2019-04-10T06:36:55.279Z,85.15
2019-04-10T06:39:24.790Z,84.22
2019-04-10T06:41:53.499Z,86.25
2019-04-10T06:44:21.965Z,81.72
2019-04-10T06:46:50.740Z,79.35
2019-04-10T06:49:19.431Z,84.70
2019-04-10T06:51:47.881Z,85.03
2019-04-10T06:54:16.529Z,85.65
2019-04-10T06:56:45.402Z,88.65
2019-04-10T06:59:16.241Z,88.45
2019-04-10T07:01:51.384Z,86.78
2019-04-10T07:04:15.537Z,85.83
2019-04-10T07:06:55.701Z,91.02
2019-04-10T07:09:21.259Z,85.35
2019-04-10T07:11:53.564Z,84.87
2019-04-10T07:14:20.408Z,81.87
2019-04-10T07:16:49.215Z,86.45
2019-04-10T07:19:17.788Z,87.70
2019-04-10T07:21:47.127Z,83.95
2019-04-10T07:24:16.687Z,80.85
2019-04-10T07:26:47.815Z,82.97
2019-04-10T07:29:18.678Z,76.83
2019-04-10T07:31:46.638Z,73.33
2019-04-10T07:34:15.269Z,78.75
2019-04-10T07:36:45.145Z,74.60
2019-04-10T07:39:15.117Z,74.03
2019-04-10T07:41:43.668Z,71.65
2019-04-10T07:44:13.087Z,67.20
2019-04-10T07:46:42.376Z,66.77
2019-04-10T07:49:11.054Z,68.90
2019-04-10T07:51:39.533Z,67.30
2019-04-10T07:54:08.229Z,65.90
2019-04-10T07:56:37.543Z,64.15
2019-04-10T07:59:06.716Z,63.58
2019-04-10T08:01:37.572Z,59.90
2019-04-10T08:04:06.300Z,58.28
2019-04-10T08:06:35.296Z,59.25
2019-04-10T08:09:05.430Z,59.88
2019-04-10T08:11:33.902Z,57.45
2019-04-10T08:14:03.471Z,55.03
2019-04-10T08:16:32.899Z,53.02
2019-04-10T08:19:02.067Z,50.52
2019-04-10T08:21:31.622Z,52.08
2019-04-10T08:24:00.446Z,50.15
2019-04-10T08:26:28.977Z,50.08
2019-04-10T08:28:57.418Z,51.73
2019-04-10T08:31:25.850Z,49.25
2019-04-10T08:33:54.734Z,52.67
2019-04-10T08:36:23.533Z,49.53
2019-04-10T08:38:52.816Z,48.45
2019-04-10T08:41:21.390Z,48.25
2019-04-10T08:43:50.285Z,47.73
2019-04-10T08:46:19.786Z,46.95
2019-04-10T08:49:12.198Z,46.65
2019-04-10T08:51:41.611Z,44.60
2019-04-10T08:54:10.201Z,46.13
2019-04-10T08:56:38.793Z,45.80
2019-04-10T08:59:07.614Z,46.13
2019-04-10T09:01:36.108Z,47.10
2019-04-10T09:04:05.718Z,44.98
2019-04-10T09:06:34.260Z,45.30
2019-04-10T09:09:03.536Z,45.73
2019-04-10T09:11:32.949Z,44.63
2019-04-10T09:14:03.159Z,44.17
2019-04-10T09:16:31.765Z,43.23
2019-04-10T09:19:01.327Z,43.63
2019-04-10T09:21:30.024Z,42.70
2019-04-10T09:24:00.289Z,42.60
2019-04-10T09:26:28.764Z,41.63
2019-04-10T09:28:57.326Z,44.15
2019-04-10T09:31:25.982Z,42.83
2019-04-10T09:33:55.696Z,39.83
2019-04-10T09:36:24.935Z,40.17
2019-04-10T09:38:54.872Z,41.18
2019-04-10T09:41:23.773Z,39.98
2019-04-10T09:43:52.263Z,39.30
2019-04-10T09:46:20.791Z,40.52
2019-04-10T09:48:49.856Z,41.08
2019-04-10T09:51:19.635Z,38.13
2019-04-10T09:53:48.899Z,38.50
2019-04-10T09:56:17.569Z,38.88
2019-04-10T09:58:46.817Z,37.65
2019-04-10T10:01:16.148Z,36.55
2019-04-10T10:03:45.048Z,35.52
2019-04-10T10:06:25.258Z,36.45
2019-04-10T10:08:43.770Z,34.90
2019-04-10T10:11:12.449Z,36.65
2019-04-10T10:13:42.020Z,35.25
2019-04-10T10:16:10.702Z,35.43
2019-04-10T10:18:39.153Z,35.65
2019-04-10T10:21:08.244Z,35.48
2019-04-10T10:23:37.992Z,32.83
2019-04-10T10:26:07.869Z,34.53
2019-04-10T10:28:37.417Z,34.48
2019-04-10T10:31:06.248Z,33.48
2019-04-10T10:33:34.797Z,32.08
2019-04-10T10:36:03.346Z,32.98
2019-04-10T10:38:31.975Z,32.98
2019-04-10T10:41:01.189Z,32.30
2019-04-10T10:43:29.739Z,32.53
2019-04-10T10:45:58.915Z,32.03
2019-04-10T10:48:27.638Z,30.65
2019-04-10T10:50:56.229Z,30.72
2019-04-10T10:53:25.041Z,30.85
2019-04-10T10:55:53.933Z,32.45
2019-04-10T10:58:23.782Z,32.42
2019-04-10T11:00:53.591Z,31.62
2019-04-10T11:03:22.546Z,33.75
2019-04-10T11:05:52.751Z,31.77
2019-04-10T11:08:22.100Z,31.27
2019-04-10T11:10:55.490Z,32.17
2019-04-10T11:13:22.454Z,23.98
2019-04-10T11:15:52.406Z,30.92
2019-04-10T11:18:22.260Z,32.05
2019-04-10T11:20:52.223Z,32.55
2019-04-10T11:23:22.180Z,32.03
2019-04-10T11:25:52.737Z,34.43
2019-04-10T11:28:22.717Z,39.30
2019-04-10T11:30:53.478Z,37.95
2019-04-10T11:33:22.362Z,39.45
2019-04-10T11:35:51.546Z,38.20
2019-04-10T11:38:21.626Z,37.13
2019-04-10T11:40:52.036Z,39.58
2019-04-10T11:43:21.593Z,37.20
2019-04-10T11:45:53.778Z,35.43
2019-04-10T11:48:20.442Z,34.18
2019-04-10T11:50:50.866Z,29.80
2019-04-10T11:53:19.393Z,30.70
2019-04-10T11:55:52.409Z,29.42
2019-04-10T11:58:18.278Z,28.40
2019-04-10T12:00:51.782Z,31.90
2019-04-10T12:03:18.184Z,35.45
2019-04-10T12:05:49.106Z,36.42
2019-04-10T12:08:41.621Z,36.35
2019-04-10T12:13:19.775Z,35.90
2019-04-10T12:15:48.483Z,33.55
2019-04-10T12:18:18.216Z,33.73
2019-04-10T12:20:46.977Z,33.38
2019-04-10T12:23:15.490Z,34.60
2019-04-10T12:25:45.002Z,34.83
2019-04-10T12:28:13.808Z,34.67
2019-04-10T12:30:42.326Z,34.33
2019-04-10T12:33:11.679Z,33.40
2019-04-10T12:35:40.423Z,33.88
2019-04-10T12:38:10.795Z,34.73
2019-04-10T12:40:40.465Z,34.27
2019-04-10T12:43:10.422Z,34.48
2019-04-10T12:45:40.202Z,34.40
2019-04-10T12:48:08.998Z,33.83
2019-04-10T12:50:37.558Z,33.80
2019-04-10T12:53:07.327Z,32.95
2019-04-10T12:55:36.722Z,33.63
2019-04-10T12:58:11.074Z,32.67
2019-04-10T13:00:36.089Z,31.83
2019-04-10T13:03:05.149Z,31.90
2019-04-10T13:05:34.666Z,31.87
2019-04-10T13:08:16.075Z,31.23
2019-04-10T13:10:35.700Z,31.27
2019-04-10T13:13:04.616Z,32.17
2019-04-10T13:15:33.052Z,29.85
2019-04-10T13:18:01.700Z,29.15
2019-04-10T13:20:30.217Z,30.25
2019-04-10T13:22:58.704Z,30.92
2019-04-10T13:25:27.384Z,27.65
2019-04-10T13:27:55.929Z,27.62
2019-04-10T13:30:25.030Z,28.27
2019-04-10T13:32:53.802Z,27.90
2019-04-10T13:35:22.325Z,27.32
2019-04-10T13:37:50.939Z,26.42
2019-04-10T13:40:19.539Z,25.70
2019-04-10T13:42:48.092Z,27.90
2019-04-10T13:45:17.759Z,28.60
2019-04-10T13:47:48.066Z,26.62
2019-04-10T13:50:16.863Z,26.73
2019-04-10T13:52:49.661Z,26.68
2019-04-10T13:55:17.396Z,27.35
2019-04-10T13:57:46.640Z,26.20
2019-04-10T14:00:20.035Z,27.35
2019-04-10T14:02:48.557Z,26.45
2019-04-10T14:05:17.904Z,26.48
2019-04-10T14:07:46.611Z,24.57
2019-04-10T14:10:16.655Z,25.35
2019-04-10T14:12:45.146Z,25.10
2019-04-10T14:15:14.381Z,23.73
2019-04-10T14:17:43.869Z,23.35
2019-04-10T14:20:15.223Z,22.32
2019-04-10T14:22:51.419Z,21.05
2019-04-10T14:25:37.926Z,19.90
2019-04-10T14:28:06.991Z,19.82
2019-04-10T14:30:37.789Z,18.60
2019-04-10T14:33:07.145Z,19.20
2019-04-10T14:35:35.934Z,18.75
2019-04-10T14:38:05.083Z,18.35
2019-04-10T14:40:34.322Z,16.73
2019-04-10T14:43:03.245Z,15.75
2019-04-10T14:45:33.250Z,15.90
2019-04-10T14:48:01.944Z,16.48
2019-04-10T14:50:31.606Z,15.03
2019-04-10T14:53:01.257Z,16.50
2019-04-10T14:55:30.353Z,16.02
2019-04-10T14:57:59.257Z,15.72
2019-04-10T15:00:32.919Z,16.23
2019-04-10T15:03:04.260Z,17.00
2019-04-10T15:05:44.513Z,16.15
2019-04-10T15:08:04.207Z,16.90
2019-04-10T15:10:32.805Z,15.65
2019-04-10T15:13:09.355Z,17.02
2019-04-10T15:15:32.398Z,17.00
2019-04-10T15:18:00.991Z,15.95
2019-04-10T15:20:29.614Z,15.95
2019-04-10T15:22:58.661Z,15.78
2019-04-10T15:25:27.343Z,14.98
2019-04-10T15:27:55.933Z,15.30
2019-04-10T15:30:24.523Z,15.95
2019-04-10T15:32:53.923Z,17.12
2019-04-10T15:35:26.513Z,16.12
2019-04-10T15:37:55.687Z,15.90
2019-04-10T15:40:26.185Z,16.67
2019-04-10T15:42:54.697Z,16.02
2019-04-10T15:45:23.882Z,13.70
2019-04-10T15:47:56.604Z,15.23
2019-04-10T15:50:22.804Z,15.37
2019-04-10T15:52:51.628Z,13.90
2019-04-10T15:55:20.099Z,14.58
2019-04-10T15:57:53.740Z,14.43
2019-04-10T16:00:19.656Z,14.20
2019-04-10T16:02:48.922Z,14.20
2019-04-10T16:05:17.657Z,15.55
2019-04-10T16:07:46.954Z,14.50
2019-04-10T16:10:26.279Z,14.53
2019-04-10T16:12:56.257Z,13.90
2019-04-10T16:15:25.134Z,14.45
2019-04-10T16:17:58.840Z,13.90
2019-04-10T16:20:48.568Z,14.70
2019-04-10T16:23:34.108Z,15.35
2019-04-10T16:26:03.048Z,15.90
2019-04-10T16:28:31.812Z,15.75
2019-04-10T16:31:01.330Z,18.07
2019-04-10T16:33:32.153Z,19.07
2019-04-10T16:36:00.974Z,17.95
2019-04-10T16:38:30.984Z,17.80
2019-04-10T16:41:00.494Z,17.73
2019-04-10T16:43:30.526Z,17.42
2019-04-10T16:45:59.469Z,17.25
2019-04-10T16:48:28.304Z,18.25
2019-04-10T16:50:56.992Z,17.98
2019-04-10T16:53:25.799Z,17.60
2019-04-10T16:55:54.538Z,18.60
2019-04-10T16:58:23.463Z,18.98
2019-04-10T17:00:52.339Z,19.40
2019-04-10T17:03:21.826Z,19.42
2019-04-10T17:05:50.431Z,19.10
2019-04-10T17:08:19.628Z,21.30
2019-04-10T17:10:48.511Z,21.70
2019-04-10T17:13:18.215Z,19.82
2019-04-10T17:15:48.651Z,19.85
2019-04-10T17:18:17.300Z,18.85
2019-04-10T17:20:46.866Z,19.98
2019-04-10T17:23:16.403Z,21.05
2019-04-10T17:25:46.444Z,20.37
2019-04-10T17:28:16.321Z,18.90
2019-04-10T17:30:46.349Z,19.27
2019-04-10T17:33:18.617Z,20.37
2019-04-10T17:35:47.584Z,19.87
2019-04-10T17:38:16.447Z,17.62
2019-04-10T17:40:50.520Z,18.95
2019-04-10T17:43:15.331Z,19.50
2019-04-10T17:45:44.883Z,20.25
2019-04-10T17:48:13.767Z,17.67
2019-04-10T17:50:43.694Z,19.30
2019-04-10T17:53:13.318Z,20.12
2019-04-10T17:55:44.001Z,19.90
2019-04-10T17:58:13.629Z,18.87
2019-04-10T18:00:45.328Z,19.73
2019-04-10T18:03:17.586Z,19.48
2019-04-10T18:05:44.666Z,19.50
2019-04-10T18:08:13.511Z,19.27
2019-04-10T18:10:48.747Z,18.23
2019-04-10T18:13:13.417Z,17.50
2019-04-10T18:15:42.094Z,20.15
2019-04-10T18:18:11.523Z,18.40
2019-04-10T18:20:40.448Z,20.92
2019-04-10T18:23:09.333Z,21.20
2019-04-10T18:25:38.211Z,20.60
2019-04-10T18:28:07.493Z,21.17
2019-04-10T18:30:37.126Z,22.10
2019-04-10T18:33:06.874Z,22.32
2019-04-10T18:35:35.585Z,22.20
2019-04-10T18:38:04.236Z,23.42
2019-04-10T18:40:34.974Z,21.87
2019-04-10T18:43:04.350Z,23.42
2019-04-10T18:45:33.626Z,24.72
2019-04-10T18:48:02.749Z,22.30
2019-04-10T18:50:32.124Z,24.63
2019-04-10T18:53:01.614Z,22.00
2019-04-10T18:55:30.420Z,21.62
2019-04-10T18:57:59.201Z,21.40
2019-04-10T19:00:46.186Z,20.95
2019-04-10T19:03:18.983Z,21.70
2019-04-10T19:05:50.452Z,21.62
2019-04-10T19:08:19.782Z,21.10
2019-04-10T19:10:48.623Z,20.27
2019-04-10T19:13:17.290Z,19.87
2019-04-10T19:15:46.995Z,20.85
2019-04-10T19:18:15.715Z,19.57
2019-04-10T19:20:44.318Z,19.67
2019-04-10T19:23:13.038Z,19.40
2019-04-10T19:25:43.269Z,17.95
2019-04-10T19:28:12.842Z,18.50
2019-04-10T19:30:45.972Z,17.82
2019-04-10T19:33:14.533Z,17.20
2019-04-10T19:35:43.470Z,17.48
2019-04-10T19:38:13.404Z,16.30
2019-04-10T19:40:43.678Z,17.00
2019-04-10T19:43:13.762Z,17.27
2019-04-10T19:45:44.025Z,17.15
2019-04-10T19:48:12.558Z,16.62
2019-04-10T19:50:41.565Z,16.85
2019-04-10T19:53:11.168Z,18.37
2019-04-10T19:55:40.270Z,17.02
2019-04-10T19:58:10.793Z,17.25
2019-04-10T20:00:39.503Z,16.30
2019-04-10T20:03:13.266Z,16.75
2019-04-10T20:05:42.343Z,16.45
2019-04-10T20:08:12.697Z,15.88
2019-04-10T20:10:41.606Z,15.67
2019-04-10T20:13:10.363Z,15.95
2019-04-10T20:15:38.852Z,15.53
2019-04-10T20:18:08.494Z,15.85
2019-04-10T20:20:37.495Z,15.55
2019-04-10T20:23:06.856Z,15.53
2019-04-10T20:25:36.700Z,14.45
2019-04-10T20:28:06.696Z,15.38
2019-04-10T20:30:35.481Z,15.43
2019-04-10T20:33:04.080Z,15.32
2019-04-10T20:35:32.715Z,15.25
2019-04-10T20:38:01.190Z,15.93
2019-04-10T20:40:29.870Z,15.30
2019-04-10T20:42:58.485Z,15.08
2019-04-10T20:45:27.643Z,15.30
2019-04-10T20:47:56.360Z,14.28
2019-04-10T20:50:25.911Z,15.43
2019-04-10T20:52:55.716Z,15.68
2019-04-10T20:55:25.747Z,15.15
2019-04-10T20:57:54.522Z,15.70
2019-04-10T21:00:41.054Z,15.48
2019-04-10T21:03:09.758Z,15.63
2019-04-10T21:05:38.204Z,15.30
2019-04-10T21:08:06.847Z,15.20
2019-04-10T21:10:35.541Z,14.47
2019-04-10T21:13:04.629Z,14.73
2019-04-10T21:15:33.462Z,14.38
2019-04-10T21:18:02.610Z,15.38
2019-04-10T21:20:32.337Z,15.32
2019-04-10T21:23:01.369Z,15.70
2019-04-10T21:25:30.952Z,14.78
2019-04-10T21:28:00.313Z,15.55
2019-04-10T21:30:33.980Z,13.98
2019-04-10T21:33:14.204Z,14.68
2019-04-10T21:35:43.694Z,15.32
2019-04-10T21:38:13.137Z,15.18
2019-04-10T21:40:41.669Z,15.35
2019-04-10T21:43:10.186Z,14.38
2019-04-10T21:45:39.238Z,14.75
2019-04-10T21:48:08.544Z,14.68
2019-04-10T21:50:37.697Z,14.78
2019-04-10T21:53:06.433Z,15.70
2019-04-10T21:55:35.352Z,14.65
2019-04-10T21:58:04.011Z,15.32
2019-04-10T22:00:51.098Z,14.23
2019-04-10T22:03:20.969Z,14.70
2019-04-10T22:06:07.827Z,14.58
2019-04-10T22:08:37.963Z,14.23
2019-04-10T22:11:06.463Z,15.43
2019-04-10T22:14:00.496Z,14.38
2019-04-10T22:16:31.144Z,13.83
2019-04-10T22:19:03.774Z,10.30
2019-04-10T22:21:58.673Z,14.28
2019-04-10T22:24:40.523Z,13.28
2019-04-10T22:30:25.141Z,15.78
2019-04-10T22:33:07.655Z,14.38
2019-04-10T22:35:42.212Z,14.73
2019-04-10T22:38:17.389Z,13.43
2019-04-10T22:40:53.862Z,14.60
2019-04-10T22:43:22.629Z,13.60
2019-04-10T22:46:00.467Z,14.40
2019-04-10T22:48:48.645Z,13.88
2019-04-10T22:51:31.231Z,13.68
2019-04-10T22:54:08.143Z,13.60
2019-04-10T22:56:42.515Z,14.10
2019-04-10T22:59:28.475Z,14.40
2019-04-10T23:02:17.762Z,14.20
2019-04-10T23:07:39.052Z,14.55
2019-04-10T23:10:17.652Z,13.93
2019-04-10T23:13:03.059Z,13.30
2019-04-10T23:15:41.894Z,13.15
2019-04-10T23:18:07.643Z,13.25
2019-04-10T23:20:48.005Z,13.15
2019-04-10T23:23:21.064Z,13.55
2019-04-10T23:26:02.163Z,14.03
2019-04-10T23:28:38.493Z,13.53
2019-04-10T23:31:19.055Z,13.38
2019-04-10T23:33:56.554Z,12.98
2019-04-10T23:36:30.181Z,12.93
2019-04-10T23:38:59.704Z,13.72
2019-04-10T23:41:28.293Z,13.28
2019-04-10T23:43:56.823Z,12.50
2019-04-10T23:46:26.323Z,13.22
2019-04-10T23:48:55.192Z,12.95
2019-04-10T23:51:25.175Z,13.15
2019-04-10T23:53:55.029Z,12.10
2019-04-10T23:56:23.936Z,11.93
2019-04-10T23:58:52.454Z,12.00
